sensor_id;sensor_type;location;lat;lon;timestamp;temperature;humidity
59067;DHT22;44854;50.838;4.438;2023-02-15T05:23:32;2.70;99.90
59067;DHT22;44854;50.838;4.438;2023-02-15T05:25:58;2.70;99.90
59067;DHT22;44854;50.838;4.438;2023-02-15T05:28:42;2.70;99.90
59067;DHT22;44854;50.838;4.438;2023-02-15T05:31:11;2.70;99.90
59067;DHT22;44854;50.838;4.438;2023-02-15T05:33:38;2.80;99.90
59067;DHT22;44854;50.838;4.438;2023-02-15T05:36:04;2.70;99.90
59067;DHT22;44854;50.838;4.438;2023-02-15T05:38:30;2.60;99.90
59067;DHT22;44854;50.838;4.438;2023-02-15T05:40:56;2.60;99.90
59067;DHT22;44854;50.838;4.438;2023-02-15T05:43:21;2.60;99.90
59067;DHT22;44854;50.838;4.438;2023-02-15T05:45:50;2.60;99.90
59067;DHT22;44854;50.838;4.438;2023-02-15T05:48:16;2.80;99.90
59067;DHT22;44854;50.838;4.438;2023-02-15T05:50:42;2.70;99.90
59067;DHT22;44854;50.838;4.438;2023-02-15T05:53:08;2.60;99.90
59067;DHT22;44854;50.838;4.438;2023-02-15T05:55:33;2.60;99.90
59067;DHT22;44854;50.838;4.438;2023-02-15T05:57:59;2.50;99.90
59067;DHT22;44854;50.838;4.438;2023-02-15T06:00:25;2.50;99.90
59067;DHT22;44854;50.838;4.438;2023-02-15T06:02:50;2.40;99.90
59067;DHT22;44854;50.838;4.438;2023-02-15T06:05:16;2.40;99.90
59067;DHT22;44854;50.838;4.438;2023-02-15T06:07:45;2.40;99.90
59067;DHT22;44854;50.838;4.438;2023-02-15T06:10:11;2.40;99.90
59067;DHT22;44854;50.838;4.438;2023-02-15T06:12:36;2.50;99.90
59067;DHT22;44854;50.838;4.438;2023-02-15T06:15:03;2.60;99.90
59067;DHT22;44854;50.838;4.438;2023-02-15T06:17:28;2.60;99.90
59067;DHT22;44854;50.838;4.438;2023-02-15T06:19:54;2.70;99.90
59067;DHT22;44854;50.838;4.438;2023-02-15T06:22:19;2.70;99.90
59067;DHT22;44854;50.838;4.438;2023-02-15T06:24:45;2.70;99.90
59067;DHT22;44854;50.838;4.438;2023-02-15T06:27:11;2.70;99.90
59067;DHT22;44854;50.838;4.438;2023-02-15T06:29:36;2.70;99.90
59067;DHT22;44854;50.838;4.438;2023-02-15T06:32:02;2.70;99.90
59067;DHT22;44854;50.838;4.438;2023-02-15T06:34:28;2.70;99.90
59067;DHT22;44854;50.838;4.438;2023-02-15T06:36:53;2.70;99.90
59067;DHT22;44854;50.838;4.438;2023-02-15T06:39:19;2.70;99.90
59067;DHT22;44854;50.838;4.438;2023-02-15T06:41:44;2.70;99.90
59067;DHT22;44854;50.838;4.438;2023-02-15T06:44:10;2.60;99.90
59067;DHT22;44854;50.838;4.438;2023-02-15T06:46:35;2.60;99.90
59067;DHT22;44854;50.838;4.438;2023-02-15T06:49:01;2.70;99.90
59067;DHT22;44854;50.838;4.438;2023-02-15T06:51:26;2.70;99.90
59067;DHT22;44854;50.838;4.438;2023-02-15T06:53:52;2.70;99.90
59067;DHT22;44854;50.838;4.438;2023-02-15T06:56:17;2.80;99.90
59067;DHT22;44854;50.838;4.438;2023-02-15T06:58:43;2.80;99.90
59067;DHT22;44854;50.838;4.438;2023-02-15T07:01:11;2.80;99.90
59067;DHT22;44854;50.838;4.438;2023-02-15T07:03:36;2.80;99.90
59067;DHT22;44854;50.838;4.438;2023-02-15T07:06:02;2.80;99.90
59067;DHT22;44854;50.838;4.438;2023-02-15T07:08:31;2.80;99.90
59067;DHT22;44854;50.838;4.438;2023-02-15T07:10:56;2.80;99.90
59067;DHT22;44854;50.838;4.438;2023-02-15T07:13:45;2.80;99.90
59067;DHT22;44854;50.838;4.438;2023-02-15T07:16:11;2.70;99.90
59067;DHT22;44854;50.838;4.438;2023-02-15T07:18:37;2.80;99.90
59067;DHT22;44854;50.838;4.438;2023-02-15T07:21:02;2.90;99.90
59067;DHT22;44854;50.838;4.438;2023-02-15T07:23:29;3.00;99.90
59067;DHT22;44854;50.838;4.438;2023-02-15T07:25:58;3.10;99.90
59067;DHT22;44854;50.838;4.438;2023-02-15T07:28:24;3.20;99.90
59067;DHT22;44854;50.838;4.438;2023-02-15T07:30:49;3.20;99.90
59067;DHT22;44854;50.838;4.438;2023-02-15T07:33:15;3.10;99.90
59067;DHT22;44854;50.838;4.438;2023-02-15T07:35:53;3.10;99.90
59067;DHT22;44854;50.838;4.438;2023-02-15T07:38:19;3.10;99.90
59067;DHT22;44854;50.838;4.438;2023-02-15T07:40:45;3.10;99.90
59067;DHT22;44854;50.838;4.438;2023-02-15T07:43:11;3.10;99.90
59067;DHT22;44854;50.838;4.438;2023-02-15T07:45:37;3.10;99.90
59067;DHT22;44854;50.838;4.438;2023-02-15T07:48:02;3.20;99.90
59067;DHT22;44854;50.838;4.438;2023-02-15T07:50:28;3.10;99.90
59067;DHT22;44854;50.838;4.438;2023-02-15T07:52:54;3.30;99.90
59067;DHT22;44854;50.838;4.438;2023-02-15T07:55:19;3.10;99.90
59067;DHT22;44854;50.838;4.438;2023-02-15T07:57:45;3.10;99.90
59067;DHT22;44854;50.838;4.438;2023-02-15T08:00:12;3.20;99.90
59067;DHT22;44854;50.838;4.438;2023-02-15T08:02:38;3.20;99.90
59067;DHT22;44854;50.838;4.438;2023-02-15T08:05:04;3.40;99.90
59067;DHT22;44854;50.838;4.438;2023-02-15T08:07:30;3.50;99.90
59067;DHT22;44854;50.838;4.438;2023-02-15T08:09:55;3.60;99.90
59067;DHT22;44854;50.838;4.438;2023-02-15T08:12:21;3.60;99.90
59067;DHT22;44854;50.838;4.438;2023-02-15T08:14:46;3.70;99.90
59067;DHT22;44854;50.838;4.438;2023-02-15T08:17:12;3.60;99.90
59067;DHT22;44854;50.838;4.438;2023-02-15T08:19:37;3.60;99.90
59067;DHT22;44854;50.838;4.438;2023-02-15T08:22:07;3.60;99.90
59067;DHT22;44854;50.838;4.438;2023-02-15T08:24:34;3.70;99.90
59067;DHT22;44854;50.838;4.438;2023-02-15T08:26:59;3.70;99.90
59067;DHT22;44854;50.838;4.438;2023-02-15T08:29:28;3.80;99.90
59067;DHT22;44854;50.838;4.438;2023-02-15T08:31:54;3.90;99.90
59067;DHT22;44854;50.838;4.438;2023-02-15T08:34:20;4.00;99.90
59067;DHT22;44854;50.838;4.438;2023-02-15T08:36:46;4.10;99.90
59067;DHT22;44854;50.838;4.438;2023-02-15T08:39:12;4.20;99.90
59067;DHT22;44854;50.838;4.438;2023-02-15T08:41:38;4.40;99.90
59067;DHT22;44854;50.838;4.438;2023-02-15T08:44:05;4.60;99.90
59067;DHT22;44854;50.838;4.438;2023-02-15T08:46:32;4.70;99.90
59067;DHT22;44854;50.838;4.438;2023-02-15T08:48:58;4.90;99.90
59067;DHT22;44854;50.838;4.438;2023-02-15T08:51:25;5.10;99.90
59067;DHT22;44854;50.838;4.438;2023-02-15T08:53:52;5.20;99.90
59067;DHT22;44854;50.838;4.438;2023-02-15T08:56:19;5.30;99.90
59067;DHT22;44854;50.838;4.438;2023-02-15T08:58:45;5.60;99.90
59067;DHT22;44854;50.838;4.438;2023-02-15T09:01:12;5.80;99.90
59067;DHT22;44854;50.838;4.438;2023-02-15T09:03:38;5.90;99.90
59067;DHT22;44854;50.838;4.438;2023-02-15T09:06:04;6.10;99.90
59067;DHT22;44854;50.838;4.438;2023-02-15T09:08:30;6.30;99.90
59067;DHT22;44854;50.838;4.438;2023-02-15T09:11:09;6.40;99.90
59067;DHT22;44854;50.838;4.438;2023-02-15T09:13:35;6.70;99.90
59067;DHT22;44854;50.838;4.438;2023-02-15T09:16:04;7.00;99.90
59067;DHT22;44854;50.838;4.438;2023-02-15T09:18:31;7.20;99.90
59067;DHT22;44854;50.838;4.438;2023-02-15T09:20:57;7.40;99.90
59067;DHT22;44854;50.838;4.438;2023-02-15T09:23:22;7.50;99.90
59067;DHT22;44854;50.838;4.438;2023-02-15T09:25:48;7.70;99.90
59067;DHT22;44854;50.838;4.438;2023-02-15T09:28:13;7.80;99.90
59067;DHT22;44854;50.838;4.438;2023-02-15T09:30:39;8.00;99.90
59067;DHT22;44854;50.838;4.438;2023-02-15T09:33:04;8.10;99.90
59067;DHT22;44854;50.838;4.438;2023-02-15T09:35:30;8.30;99.90
59067;DHT22;44854;50.838;4.438;2023-02-15T09:37:55;8.30;99.90
59067;DHT22;44854;50.838;4.438;2023-02-15T09:40:21;8.50;99.90
59067;DHT22;44854;50.838;4.438;2023-02-15T09:47:54;8.90;99.90
59067;DHT22;44854;50.838;4.438;2023-02-15T10:16:58;10.00;99.90
59067;DHT22;44854;50.838;4.438;2023-02-15T10:22:13;10.00;99.90
59067;DHT22;44854;50.838;4.438;2023-02-15T10:24:54;10.10;99.90
59067;DHT22;44854;50.838;4.438;2023-02-15T10:27:21;10.00;99.90
59067;DHT22;44854;50.838;4.438;2023-02-15T10:47:46;10.90;99.90
59067;DHT22;44854;50.838;4.438;2023-02-15T10:55:12;11.40;99.90
59067;DHT22;44854;50.838;4.438;2023-02-15T11:07:46;11.60;99.90
59067;DHT22;44854;50.838;4.438;2023-02-15T11:12:44;11.90;99.90
59067;DHT22;44854;50.838;4.438;2023-02-15T11:15:14;11.90;99.90
59067;DHT22;44854;50.838;4.438;2023-02-15T11:17:46;12.10;99.90
59067;DHT22;44854;50.838;4.438;2023-02-15T11:20:21;12.20;99.90
59067;DHT22;44854;50.838;4.438;2023-02-15T11:22:49;12.30;99.90
59067;DHT22;44854;50.838;4.438;2023-02-15T11:25:23;12.20;99.90
59067;DHT22;44854;50.838;4.438;2023-02-15T11:27:50;12.20;99.90
59067;DHT22;44854;50.838;4.438;2023-02-15T11:30:20;12.30;99.90
59067;DHT22;44854;50.838;4.438;2023-02-15T11:32:47;12.30;99.90
59067;DHT22;44854;50.838;4.438;2023-02-15T11:35:26;12.20;99.90
59067;DHT22;44854;50.838;4.438;2023-02-15T11:38:01;12.30;99.90
59067;DHT22;44854;50.838;4.438;2023-02-15T11:40:43;12.40;99.90
59067;DHT22;44854;50.838;4.438;2023-02-15T11:43:13;12.50;99.90
59067;DHT22;44854;50.838;4.438;2023-02-15T11:45:41;12.70;99.90
59067;DHT22;44854;50.838;4.438;2023-02-15T11:48:11;12.70;99.90
59067;DHT22;44854;50.838;4.438;2023-02-15T11:50:37;12.70;99.90
59067;DHT22;44854;50.838;4.438;2023-02-15T11:53:04;12.60;99.90
59067;DHT22;44854;50.838;4.438;2023-02-15T11:55:30;12.70;99.90
59067;DHT22;44854;50.838;4.438;2023-02-15T12:00:32;12.90;99.90
59067;DHT22;44854;50.838;4.438;2023-02-15T12:03:02;13.00;99.90
59067;DHT22;44854;50.838;4.438;2023-02-15T12:05:30;13.10;99.90
59067;DHT22;44854;50.838;4.438;2023-02-15T12:08:00;13.20;99.90
59067;DHT22;44854;50.838;4.438;2023-02-15T12:10:33;13.20;99.90
59067;DHT22;44854;50.838;4.438;2023-02-15T12:13:14;13.00;99.90
59067;DHT22;44854;50.838;4.438;2023-02-15T12:15:48;12.70;99.90
59067;DHT22;44854;50.838;4.438;2023-02-15T12:18:18;12.60;99.90
59067;DHT22;44854;50.838;4.438;2023-02-15T12:20:44;12.40;99.90
59067;DHT22;44854;50.838;4.438;2023-02-15T12:23:12;12.40;99.90
59067;DHT22;44854;50.838;4.438;2023-02-15T12:25:51;12.40;99.90
59067;DHT22;44854;50.838;4.438;2023-02-15T12:28:34;12.30;99.90
59067;DHT22;44854;50.838;4.438;2023-02-15T12:31:04;12.40;99.90
59067;DHT22;44854;50.838;4.438;2023-02-15T12:33:36;12.40;99.90
59067;DHT22;44854;50.838;4.438;2023-02-15T12:36:17;12.50;99.90
59067;DHT22;44854;50.838;4.438;2023-02-15T12:38:43;12.60;99.90
59067;DHT22;44854;50.838;4.438;2023-02-15T12:41:21;12.80;99.90
59067;DHT22;44854;50.838;4.438;2023-02-15T12:43:47;12.80;99.90
59067;DHT22;44854;50.838;4.438;2023-02-15T12:46:27;13.00;99.90
59067;DHT22;44854;50.838;4.438;2023-02-15T12:49:06;13.20;99.90
59067;DHT22;44854;50.838;4.438;2023-02-15T12:51:43;13.40;99.90
59067;DHT22;44854;50.838;4.438;2023-02-15T12:56:49;13.40;99.90
59067;DHT22;44854;50.838;4.438;2023-02-15T12:59:15;13.20;99.90
59067;DHT22;44854;50.838;4.438;2023-02-15T13:01:41;13.10;99.90
59067;DHT22;44854;50.838;4.438;2023-02-15T13:04:14;13.00;99.90
59067;DHT22;44854;50.838;4.438;2023-02-15T13:06:47;13.00;99.90
59067;DHT22;44854;50.838;4.438;2023-02-15T13:11:39;12.90;99.90
59067;DHT22;44854;50.838;4.438;2023-02-15T13:14:19;13.00;99.90
59067;DHT22;44854;50.838;4.438;2023-02-15T13:16:46;13.00;99.90
59067;DHT22;44854;50.838;4.438;2023-02-15T13:19:13;12.90;99.90
59067;DHT22;44854;50.838;4.438;2023-02-15T13:21:41;13.00;99.90
59067;DHT22;44854;50.838;4.438;2023-02-15T13:24:22;13.20;99.90
59067;DHT22;44854;50.838;4.438;2023-02-15T13:26:48;13.20;99.90
59067;DHT22;44854;50.838;4.438;2023-02-15T13:29:18;13.10;99.90
59067;DHT22;44854;50.838;4.438;2023-02-15T13:31:46;13.20;99.90
59067;DHT22;44854;50.838;4.438;2023-02-15T13:34:15;13.40;99.90
59067;DHT22;44854;50.838;4.438;2023-02-15T13:36:49;13.50;99.90
59067;DHT22;44854;50.838;4.438;2023-02-15T13:39:20;13.60;99.90
59067;DHT22;44854;50.838;4.438;2023-02-15T13:44:49;13.30;99.90
59067;DHT22;44854;50.838;4.438;2023-02-15T13:52:29;13.20;99.90
59067;DHT22;44854;50.838;4.438;2023-02-15T14:00:00;13.50;99.90
59067;DHT22;44854;50.838;4.438;2023-02-15T14:07:39;13.80;99.90
59067;DHT22;44854;50.838;4.438;2023-02-15T14:17:50;14.20;99.90
59067;DHT22;44854;50.838;4.438;2023-02-15T14:22:46;14.00;99.90
59067;DHT22;44854;50.838;4.438;2023-02-15T14:25:21;14.10;99.90
59067;DHT22;44854;50.838;4.438;2023-02-15T14:30:37;13.70;99.90
59067;DHT22;44854;50.838;4.438;2023-02-15T14:35:41;13.60;99.90
59067;DHT22;44854;50.838;4.438;2023-02-15T14:38:15;13.50;99.90
59067;DHT22;44854;50.838;4.438;2023-02-15T14:40:57;13.30;99.90
59067;DHT22;44854;50.838;4.438;2023-02-15T14:43:30;13.10;99.90
59067;DHT22;44854;50.838;4.438;2023-02-15T14:48:48;13.10;99.90
59067;DHT22;44854;50.838;4.438;2023-02-15T14:53:58;13.00;99.90
59067;DHT22;44854;50.838;4.438;2023-02-15T14:56:24;12.90;99.90
59067;DHT22;44854;50.838;4.438;2023-02-15T15:01:24;12.90;99.90
59067;DHT22;44854;50.838;4.438;2023-02-15T15:03:51;12.90;99.90
59067;DHT22;44854;50.838;4.438;2023-02-15T15:06:29;13.00;99.90
59067;DHT22;44854;50.838;4.438;2023-02-15T15:08:58;13.00;99.90
59067;DHT22;44854;50.838;4.438;2023-02-15T15:13:54;13.10;99.90
59067;DHT22;44854;50.838;4.438;2023-02-15T15:19:01;13.00;99.90
59067;DHT22;44854;50.838;4.438;2023-02-15T15:24:45;13.00;99.90
59067;DHT22;44854;50.838;4.438;2023-02-15T15:29:41;12.90;99.90
59067;DHT22;44854;50.838;4.438;2023-02-15T15:32:06;13.00;99.90
59067;DHT22;44854;50.838;4.438;2023-02-15T15:42:30;13.00;99.90
59067;DHT22;44854;50.838;4.438;2023-02-15T15:50:00;12.80;99.90
59067;DHT22;44854;50.838;4.438;2023-02-15T15:52:26;12.80;99.90
59067;DHT22;44854;50.838;4.438;2023-02-15T15:54:53;12.80;99.90
59067;DHT22;44854;50.838;4.438;2023-02-15T15:59:48;12.70;99.90
59067;DHT22;44854;50.838;4.438;2023-02-15T16:02:15;12.70;99.90
59067;DHT22;44854;50.838;4.438;2023-02-15T16:04:42;12.60;99.90
59067;DHT22;44854;50.838;4.438;2023-02-15T16:09:39;12.50;99.90
59067;DHT22;44854;50.838;4.438;2023-02-15T16:12:05;12.50;99.90
59067;DHT22;44854;50.838;4.438;2023-02-15T16:14:39;12.50;99.90
59067;DHT22;44854;50.838;4.438;2023-02-15T16:17:06;12.50;99.90
59067;DHT22;44854;50.838;4.438;2023-02-15T16:19:35;12.50;99.90
59067;DHT22;44854;50.838;4.438;2023-02-15T16:22:02;12.50;99.90
59067;DHT22;44854;50.838;4.438;2023-02-15T16:29:34;12.50;99.90
59067;DHT22;44854;50.838;4.438;2023-02-15T16:32:04;12.30;99.90
59067;DHT22;44854;50.838;4.438;2023-02-15T16:34:31;12.40;99.90
59067;DHT22;44854;50.838;4.438;2023-02-15T16:37:16;12.50;99.90
59067;DHT22;44854;50.838;4.438;2023-02-15T16:39:42;12.50;99.90
59067;DHT22;44854;50.838;4.438;2023-02-15T16:42:09;12.30;99.90
59067;DHT22;44854;50.838;4.438;2023-02-15T16:44:35;12.20;99.90
59067;DHT22;44854;50.838;4.438;2023-02-15T16:47:01;12.10;99.90
59067;DHT22;44854;50.838;4.438;2023-02-15T16:49:27;12.10;99.90
59067;DHT22;44854;50.838;4.438;2023-02-15T16:51:57;12.10;99.90
59067;DHT22;44854;50.838;4.438;2023-02-15T16:54:24;12.10;99.90
59067;DHT22;44854;50.838;4.438;2023-02-15T16:56:50;12.20;99.90
59067;DHT22;44854;50.838;4.438;2023-02-15T16:59:33;12.00;99.90
59067;DHT22;44854;50.838;4.438;2023-02-15T17:02:00;11.80;99.90
59067;DHT22;44854;50.838;4.438;2023-02-15T17:04:29;11.90;99.90
59067;DHT22;44854;50.838;4.438;2023-02-15T17:09:24;11.80;99.90
59067;DHT22;44854;50.838;4.438;2023-02-15T17:11:50;11.70;99.90
59067;DHT22;44854;50.838;4.438;2023-02-15T17:14:20;11.70;99.90
59067;DHT22;44854;50.838;4.438;2023-02-15T17:19:19;11.80;99.90
59067;DHT22;44854;50.838;4.438;2023-02-15T17:21:47;11.70;99.90
59067;DHT22;44854;50.838;4.438;2023-02-15T17:24:47;11.40;99.90
59067;DHT22;44854;50.838;4.438;2023-02-15T17:27:10;11.20;99.90
59067;DHT22;44854;50.838;4.438;2023-02-15T17:29:40;10.90;99.90
59067;DHT22;44854;50.838;4.438;2023-02-15T17:32:12;11.00;99.90
59067;DHT22;44854;50.838;4.438;2023-02-15T17:34:44;11.00;99.90
59067;DHT22;44854;50.838;4.438;2023-02-15T17:39:51;11.00;99.90
59067;DHT22;44854;50.838;4.438;2023-02-15T17:42:17;10.90;99.90
59067;DHT22;44854;50.838;4.438;2023-02-15T17:44:42;10.80;99.90
59067;DHT22;44854;50.838;4.438;2023-02-15T17:47:18;10.60;99.90
59067;DHT22;44854;50.838;4.438;2023-02-15T17:49:46;10.70;99.90
59067;DHT22;44854;50.838;4.438;2023-02-15T17:52:14;10.70;99.90
59067;DHT22;44854;50.838;4.438;2023-02-15T17:54:40;10.80;99.90
59067;DHT22;44854;50.838;4.438;2023-02-15T17:57:25;10.60;99.90
59067;DHT22;44854;50.838;4.438;2023-02-15T17:59:51;10.70;99.90
59067;DHT22;44854;50.838;4.438;2023-02-15T18:02:35;10.80;99.90
59067;DHT22;44854;50.838;4.438;2023-02-15T18:05:19;10.70;99.90
59067;DHT22;44854;50.838;4.438;2023-02-15T18:08:05;10.70;99.90
59067;DHT22;44854;50.838;4.438;2023-02-15T18:10:52;11.10;99.90
59067;DHT22;44854;50.838;4.438;2023-02-15T18:13:37;11.00;99.90
59067;DHT22;44854;50.838;4.438;2023-02-15T18:16:02;10.90;99.90
59067;DHT22;44854;50.838;4.438;2023-02-15T18:18:28;10.90;99.90
59067;DHT22;44854;50.838;4.438;2023-02-15T18:20:53;10.90;99.90
59067;DHT22;44854;50.838;4.438;2023-02-15T18:23:19;10.90;99.90
59067;DHT22;44854;50.838;4.438;2023-02-15T18:25:45;10.60;99.90
59067;DHT22;44854;50.838;4.438;2023-02-15T18:28:10;10.30;99.90
59067;DHT22;44854;50.838;4.438;2023-02-15T18:30:37;10.40;99.90
59067;DHT22;44854;50.838;4.438;2023-02-15T18:33:05;10.30;99.90
59067;DHT22;44854;50.838;4.438;2023-02-15T18:35:31;10.50;99.90
59067;DHT22;44854;50.838;4.438;2023-02-15T18:37:57;10.40;99.90
59067;DHT22;44854;50.838;4.438;2023-02-15T18:40:24;10.40;99.90
59067;DHT22;44854;50.838;4.438;2023-02-15T18:42:50;10.50;99.90
59067;DHT22;44854;50.838;4.438;2023-02-15T18:45:23;10.50;99.90
59067;DHT22;44854;50.838;4.438;2023-02-15T18:47:51;10.40;99.90
59067;DHT22;44854;50.838;4.438;2023-02-15T18:50:18;10.50;99.90
59067;DHT22;44854;50.838;4.438;2023-02-15T18:52:45;10.50;99.90
59067;DHT22;44854;50.838;4.438;2023-02-15T18:55:18;10.50;99.90
59067;DHT22;44854;50.838;4.438;2023-02-15T18:57:47;10.50;99.90
59067;DHT22;44854;50.838;4.438;2023-02-15T19:00:18;10.50;99.90
59067;DHT22;44854;50.838;4.438;2023-02-15T19:02:44;10.60;99.90
59067;DHT22;44854;50.838;4.438;2023-02-15T19:05:10;10.50;99.90
59067;DHT22;44854;50.838;4.438;2023-02-15T19:07:36;10.50;99.90
59067;DHT22;44854;50.838;4.438;2023-02-15T19:10:03;10.60;99.90
59067;DHT22;44854;50.838;4.438;2023-02-15T19:12:29;10.60;99.90
59067;DHT22;44854;50.838;4.438;2023-02-15T19:14:55;10.50;99.90
59067;DHT22;44854;50.838;4.438;2023-02-15T19:17:21;10.60;99.90
59067;DHT22;44854;50.838;4.438;2023-02-15T19:19:47;10.40;99.90
59067;DHT22;44854;50.838;4.438;2023-02-15T19:22:14;10.30;99.90
59067;DHT22;44854;50.838;4.438;2023-02-15T19:24:41;10.20;99.90
59067;DHT22;44854;50.838;4.438;2023-02-15T19:27:16;10.20;99.90
59067;DHT22;44854;50.838;4.438;2023-02-15T19:29:43;10.10;99.90
59067;DHT22;44854;50.838;4.438;2023-02-15T19:32:10;10.10;99.90
59067;DHT22;44854;50.838;4.438;2023-02-15T19:34:35;10.10;99.90
59067;DHT22;44854;50.838;4.438;2023-02-15T19:37:01;10.00;99.90
59067;DHT22;44854;50.838;4.438;2023-02-15T19:39:27;10.00;99.90
59067;DHT22;44854;50.838;4.438;2023-02-15T19:41:54;9.90;99.90
59067;DHT22;44854;50.838;4.438;2023-02-15T19:44:20;9.90;99.90
59067;DHT22;44854;50.838;4.438;2023-02-15T19:46:46;10.10;99.90
59067;DHT22;44854;50.838;4.438;2023-02-15T19:49:11;10.00;99.90
59067;DHT22;44854;50.838;4.438;2023-02-15T19:51:37;9.90;99.90
59067;DHT22;44854;50.838;4.438;2023-02-15T19:54:39;9.70;99.90
59067;DHT22;44854;50.838;4.438;2023-02-15T19:56:58;9.60;99.90
59067;DHT22;44854;50.838;4.438;2023-02-15T19:59:28;9.60;99.90
59067;DHT22;44854;50.838;4.438;2023-02-15T20:01:54;9.60;99.90
59067;DHT22;44854;50.838;4.438;2023-02-15T20:04:20;9.50;99.90
59067;DHT22;44854;50.838;4.438;2023-02-15T20:06:46;9.60;99.90
59067;DHT22;44854;50.838;4.438;2023-02-15T20:09:19;9.60;99.90
59067;DHT22;44854;50.838;4.438;2023-02-15T20:11:46;9.30;99.90
59067;DHT22;44854;50.838;4.438;2023-02-15T20:14:12;9.30;99.90
59067;DHT22;44854;50.838;4.438;2023-02-15T20:16:38;9.30;99.90
59067;DHT22;44854;50.838;4.438;2023-02-15T20:19:03;9.30;99.90
59067;DHT22;44854;50.838;4.438;2023-02-15T20:21:29;9.30;99.90
59067;DHT22;44854;50.838;4.438;2023-02-15T20:23:55;9.30;99.90
59067;DHT22;44854;50.838;4.438;2023-02-15T20:26:20;9.20;99.90
59067;DHT22;44854;50.838;4.438;2023-02-15T20:28:47;9.20;99.90
59067;DHT22;44854;50.838;4.438;2023-02-15T20:31:13;9.10;99.90
59067;DHT22;44854;50.838;4.438;2023-02-15T20:33:39;9.00;99.90
59067;DHT22;44854;50.838;4.438;2023-02-15T20:36:05;8.90;99.90
59067;DHT22;44854;50.838;4.438;2023-02-15T20:38:31;8.90;99.90
59067;DHT22;44854;50.838;4.438;2023-02-15T20:40:57;8.90;99.90
59067;DHT22;44854;50.838;4.438;2023-02-15T20:43:42;8.90;99.90
59067;DHT22;44854;50.838;4.438;2023-02-15T20:46:07;8.90;99.90
59067;DHT22;44854;50.838;4.438;2023-02-15T20:48:33;8.80;99.90
59067;DHT22;44854;50.838;4.438;2023-02-15T20:50:59;8.70;99.90
59067;DHT22;44854;50.838;4.438;2023-02-15T20:53:25;8.60;99.90
59067;DHT22;44854;50.838;4.438;2023-02-15T20:55:51;8.50;99.90
59067;DHT22;44854;50.838;4.438;2023-02-15T20:58:21;8.50;99.90
59067;DHT22;44854;50.838;4.438;2023-02-15T21:00:46;8.50;99.90
59067;DHT22;44854;50.838;4.438;2023-02-15T21:03:12;8.40;99.90
59067;DHT22;44854;50.838;4.438;2023-02-15T21:05:38;8.40;99.90
59067;DHT22;44854;50.838;4.438;2023-02-15T21:10:59;8.30;99.90
59067;DHT22;44854;50.838;4.438;2023-02-15T21:13:29;8.20;99.90
59067;DHT22;44854;50.838;4.438;2023-02-15T21:15:56;8.00;99.90
59067;DHT22;44854;50.838;4.438;2023-02-15T21:18:23;8.00;99.90
59067;DHT22;44854;50.838;4.438;2023-02-15T21:20:54;8.00;99.90
59067;DHT22;44854;50.838;4.438;2023-02-15T21:23:23;8.10;99.90
59067;DHT22;44854;50.838;4.438;2023-02-15T21:25:50;8.20;99.90
59067;DHT22;44854;50.838;4.438;2023-02-15T21:28:20;8.10;99.90
59067;DHT22;44854;50.838;4.438;2023-02-15T21:30:46;8.00;99.90
59067;DHT22;44854;50.838;4.438;2023-02-15T21:33:12;8.00;99.90
59067;DHT22;44854;50.838;4.438;2023-02-15T21:35:38;7.90;99.90
59067;DHT22;44854;50.838;4.438;2023-02-15T21:38:04;7.80;99.90
59067;DHT22;44854;50.838;4.438;2023-02-15T21:40:30;7.80;99.90
59067;DHT22;44854;50.838;4.438;2023-02-15T21:42:56;7.70;99.90
59067;DHT22;44854;50.838;4.438;2023-02-15T21:45:41;7.70;99.90
59067;DHT22;44854;50.838;4.438;2023-02-15T21:48:25;7.60;99.90
59067;DHT22;44854;50.838;4.438;2023-02-15T21:50:51;7.50;99.90
59067;DHT22;44854;50.838;4.438;2023-02-15T21:53:38;7.50;99.90
59067;DHT22;44854;50.838;4.438;2023-02-15T21:56:05;7.60;99.90
59067;DHT22;44854;50.838;4.438;2023-02-15T21:58:32;7.60;99.90
59067;DHT22;44854;50.838;4.438;2023-02-15T22:00:58;7.60;99.90
59067;DHT22;44854;50.838;4.438;2023-02-15T22:03:25;7.60;99.90
59067;DHT22;44854;50.838;4.438;2023-02-15T22:05:51;7.60;99.90
59067;DHT22;44854;50.838;4.438;2023-02-15T22:08:16;7.60;99.90
59067;DHT22;44854;50.838;4.438;2023-02-15T22:10:42;7.70;99.90
59067;DHT22;44854;50.838;4.438;2023-02-15T22:13:11;7.60;99.90
59067;DHT22;44854;50.838;4.438;2023-02-15T22:15:38;7.70;99.90
59067;DHT22;44854;50.838;4.438;2023-02-15T22:18:03;7.60;99.90
59067;DHT22;44854;50.838;4.438;2023-02-15T22:20:29;7.60;99.90
59067;DHT22;44854;50.838;4.438;2023-02-15T22:22:55;7.60;99.90
59067;DHT22;44854;50.838;4.438;2023-02-15T22:25:23;7.60;99.90
59067;DHT22;44854;50.838;4.438;2023-02-15T22:27:50;7.50;99.90
59067;DHT22;44854;50.838;4.438;2023-02-15T22:32:51;7.60;99.90
59067;DHT22;44854;50.838;4.438;2023-02-15T22:35:18;7.60;99.90
59067;DHT22;44854;50.838;4.438;2023-02-15T22:37:44;7.70;99.90
59067;DHT22;44854;50.838;4.438;2023-02-15T22:40:13;7.60;99.90
59067;DHT22;44854;50.838;4.438;2023-02-15T22:42:38;7.60;99.90
59067;DHT22;44854;50.838;4.438;2023-02-15T22:45:04;7.60;99.90
59067;DHT22;44854;50.838;4.438;2023-02-15T22:47:29;7.40;99.90
59067;DHT22;44854;50.838;4.438;2023-02-15T22:49:56;7.50;99.90
